sensor_id;sensor_type;location;lat;lon;timestamp;temperature;humidity
45409;DHT22;31162;51.076;3.784;2023-04-03T00:00:41;2.80;99.90
45409;DHT22;31162;51.076;3.784;2023-04-03T00:03:07;2.70;99.90
45409;DHT22;31162;51.076;3.784;2023-04-03T00:05:33;2.70;99.90
45409;DHT22;31162;51.076;3.784;2023-04-03T00:07:58;2.60;99.90
45409;DHT22;31162;51.076;3.784;2023-04-03T00:10:24;2.50;99.90
45409;DHT22;31162;51.076;3.784;2023-04-03T00:12:50;2.40;99.90
45409;DHT22;31162;51.076;3.784;2023-04-03T00:15:16;2.40;99.90
45409;DHT22;31162;51.076;3.784;2023-04-03T00:17:41;2.40;99.90
45409;DHT22;31162;51.076;3.784;2023-04-03T00:20:08;2.40;99.90
45409;DHT22;31162;51.076;3.784;2023-04-03T00:22:33;2.40;99.90
45409;DHT22;31162;51.076;3.784;2023-04-03T00:24:59;2.40;99.90
45409;DHT22;31162;51.076;3.784;2023-04-03T00:27:25;2.50;99.90
45409;DHT22;31162;51.076;3.784;2023-04-03T00:29:51;2.40;99.90
45409;DHT22;31162;51.076;3.784;2023-04-03T00:32:16;2.40;99.90
45409;DHT22;31162;51.076;3.784;2023-04-03T00:34:42;2.40;99.90
45409;DHT22;31162;51.076;3.784;2023-04-03T00:37:08;2.30;99.90
45409;DHT22;31162;51.076;3.784;2023-04-03T00:39:33;2.30;99.90
45409;DHT22;31162;51.076;3.784;2023-04-03T00:41:59;2.20;99.90
45409;DHT22;31162;51.076;3.784;2023-04-03T00:46:53;2.10;99.90
45409;DHT22;31162;51.076;3.784;2023-04-03T00:49:19;2.20;99.90
45409;DHT22;31162;51.076;3.784;2023-04-03T00:51:45;2.30;99.90
45409;DHT22;31162;51.076;3.784;2023-04-03T00:54:11;2.20;99.90
45409;DHT22;31162;51.076;3.784;2023-04-03T00:56:38;2.10;99.90
45409;DHT22;31162;51.076;3.784;2023-04-03T00:59:08;2.00;99.90
45409;DHT22;31162;51.076;3.784;2023-04-03T01:01:35;2.10;99.90
45409;DHT22;31162;51.076;3.784;2023-04-03T01:04:03;2.10;99.90
45409;DHT22;31162;51.076;3.784;2023-04-03T01:06:32;2.00;99.90
45409;DHT22;31162;51.076;3.784;2023-04-03T01:08:59;2.00;99.90
45409;DHT22;31162;51.076;3.784;2023-04-03T01:11:25;2.10;99.90
45409;DHT22;31162;51.076;3.784;2023-04-03T01:13:51;2.20;99.90
45409;DHT22;31162;51.076;3.784;2023-04-03T01:16:17;2.10;99.90
45409;DHT22;31162;51.076;3.784;2023-04-03T01:18:44;2.10;99.90
45409;DHT22;31162;51.076;3.784;2023-04-03T01:21:46;2.10;99.90
45409;DHT22;31162;51.076;3.784;2023-04-03T01:24:38;1.90;99.90
45409;DHT22;31162;51.076;3.784;2023-04-03T01:27:08;1.90;99.90
45409;DHT22;31162;51.076;3.784;2023-04-03T01:29:35;1.90;99.90
45409;DHT22;31162;51.076;3.784;2023-04-03T01:32:02;2.00;99.90
45409;DHT22;31162;51.076;3.784;2023-04-03T01:34:29;2.20;99.90
45409;DHT22;31162;51.076;3.784;2023-04-03T01:36:55;2.30;99.90
45409;DHT22;31162;51.076;3.784;2023-04-03T01:39:21;2.20;99.90
45409;DHT22;31162;51.076;3.784;2023-04-03T01:41:47;2.10;99.90
45409;DHT22;31162;51.076;3.784;2023-04-03T01:44:14;2.00;99.90
45409;DHT22;31162;51.076;3.784;2023-04-03T01:46:39;2.10;99.90
45409;DHT22;31162;51.076;3.784;2023-04-03T01:49:06;2.00;99.90
45409;DHT22;31162;51.076;3.784;2023-04-03T01:51:32;2.10;99.90
45409;DHT22;31162;51.076;3.784;2023-04-03T01:53:58;2.10;99.90
45409;DHT22;31162;51.076;3.784;2023-04-03T01:56:24;2.10;99.90
45409;DHT22;31162;51.076;3.784;2023-04-03T01:58:50;2.10;99.90
45409;DHT22;31162;51.076;3.784;2023-04-03T02:01:17;2.00;99.90
45409;DHT22;31162;51.076;3.784;2023-04-03T02:03:42;2.00;99.90
45409;DHT22;31162;51.076;3.784;2023-04-03T02:06:09;2.00;99.90
45409;DHT22;31162;51.076;3.784;2023-04-03T02:08:35;2.10;99.90
45409;DHT22;31162;51.076;3.784;2023-04-03T02:11:00;2.20;99.90
45409;DHT22;31162;51.076;3.784;2023-04-03T02:13:26;2.20;99.90
45409;DHT22;31162;51.076;3.784;2023-04-03T02:15:52;2.40;99.90
45409;DHT22;31162;51.076;3.784;2023-04-03T02:18:17;2.60;99.90
45409;DHT22;31162;51.076;3.784;2023-04-03T02:20:43;2.70;99.90
45409;DHT22;31162;51.076;3.784;2023-04-03T02:23:09;2.70;99.90
45409;DHT22;31162;51.076;3.784;2023-04-03T02:25:35;2.60;99.90
45409;DHT22;31162;51.076;3.784;2023-04-03T02:28:01;2.50;99.90
45409;DHT22;31162;51.076;3.784;2023-04-03T02:30:27;2.40;99.90
45409;DHT22;31162;51.076;3.784;2023-04-03T02:32:52;2.20;99.90
45409;DHT22;31162;51.076;3.784;2023-04-03T02:35:18;2.10;99.90
45409;DHT22;31162;51.076;3.784;2023-04-03T02:37:44;2.00;99.90
45409;DHT22;31162;51.076;3.784;2023-04-03T02:40:10;2.00;99.90
45409;DHT22;31162;51.076;3.784;2023-04-03T02:42:37;1.90;99.90
45409;DHT22;31162;51.076;3.784;2023-04-03T02:45:03;1.90;99.90
45409;DHT22;31162;51.076;3.784;2023-04-03T02:47:29;1.80;99.90
45409;DHT22;31162;51.076;3.784;2023-04-03T02:49:54;1.70;99.90
45409;DHT22;31162;51.076;3.784;2023-04-03T02:52:21;1.60;99.90
45409;DHT22;31162;51.076;3.784;2023-04-03T02:54:46;1.70;99.90
45409;DHT22;31162;51.076;3.784;2023-04-03T02:57:12;1.70;99.90
45409;DHT22;31162;51.076;3.784;2023-04-03T02:59:38;1.70;99.90
45409;DHT22;31162;51.076;3.784;2023-04-03T03:02:08;1.60;99.90
45409;DHT22;31162;51.076;3.784;2023-04-03T03:04:34;1.60;99.90
45409;DHT22;31162;51.076;3.784;2023-04-03T03:07:00;1.60;99.90
45409;DHT22;31162;51.076;3.784;2023-04-03T03:09:26;1.70;99.90
45409;DHT22;31162;51.076;3.784;2023-04-03T03:11:52;1.50;99.90
45409;DHT22;31162;51.076;3.784;2023-04-03T03:14:17;1.50;99.90
45409;DHT22;31162;51.076;3.784;2023-04-03T03:16:43;1.50;99.90
45409;DHT22;31162;51.076;3.784;2023-04-03T03:19:09;1.50;99.90
45409;DHT22;31162;51.076;3.784;2023-04-03T03:21:35;1.50;99.90
45409;DHT22;31162;51.076;3.784;2023-04-03T03:24:01;1.70;99.90
45409;DHT22;31162;51.076;3.784;2023-04-03T03:26:27;1.60;99.90
45409;DHT22;31162;51.076;3.784;2023-04-03T03:28:53;1.70;99.90
45409;DHT22;31162;51.076;3.784;2023-04-03T03:31:19;1.70;99.90
45409;DHT22;31162;51.076;3.784;2023-04-03T03:33:44;1.80;99.90
45409;DHT22;31162;51.076;3.784;2023-04-03T03:36:10;1.90;99.90
45409;DHT22;31162;51.076;3.784;2023-04-03T03:38:36;1.90;99.90
45409;DHT22;31162;51.076;3.784;2023-04-03T03:41:02;2.00;99.90
45409;DHT22;31162;51.076;3.784;2023-04-03T03:43:28;2.00;99.90
45409;DHT22;31162;51.076;3.784;2023-04-03T03:45:54;1.90;99.90
45409;DHT22;31162;51.076;3.784;2023-04-03T03:48:20;1.90;99.90
45409;DHT22;31162;51.076;3.784;2023-04-03T03:50:47;2.10;99.90
45409;DHT22;31162;51.076;3.784;2023-04-03T03:53:12;2.10;99.90
45409;DHT22;31162;51.076;3.784;2023-04-03T03:55:38;2.10;99.90
45409;DHT22;31162;51.076;3.784;2023-04-03T03:58:04;2.10;99.90
45409;DHT22;31162;51.076;3.784;2023-04-03T04:00:30;2.00;99.90
45409;DHT22;31162;51.076;3.784;2023-04-03T04:02:56;1.90;99.90
45409;DHT22;31162;51.076;3.784;2023-04-03T04:05:22;2.00;99.90
45409;DHT22;31162;51.076;3.784;2023-04-03T04:07:47;1.80;99.90
45409;DHT22;31162;51.076;3.784;2023-04-03T04:10:13;1.70;99.90
45409;DHT22;31162;51.076;3.784;2023-04-03T04:12:39;1.50;99.90
45409;DHT22;31162;51.076;3.784;2023-04-03T04:15:05;1.60;99.90
45409;DHT22;31162;51.076;3.784;2023-04-03T04:17:31;1.40;99.90
45409;DHT22;31162;51.076;3.784;2023-04-03T04:19:57;1.50;99.90
45409;DHT22;31162;51.076;3.784;2023-04-03T04:22:22;1.60;99.90
45409;DHT22;31162;51.076;3.784;2023-04-03T04:24:48;1.60;99.90
45409;DHT22;31162;51.076;3.784;2023-04-03T04:27:13;1.60;99.90
45409;DHT22;31162;51.076;3.784;2023-04-03T04:29:40;1.60;99.90
45409;DHT22;31162;51.076;3.784;2023-04-03T04:32:06;1.50;99.90
45409;DHT22;31162;51.076;3.784;2023-04-03T04:34:32;1.60;99.90
45409;DHT22;31162;51.076;3.784;2023-04-03T04:36:57;1.50;99.90
45409;DHT22;31162;51.076;3.784;2023-04-03T04:39:23;1.60;99.90
45409;DHT22;31162;51.076;3.784;2023-04-03T04:41:49;1.70;99.90
45409;DHT22;31162;51.076;3.784;2023-04-03T04:44:15;1.80;99.90
45409;DHT22;31162;51.076;3.784;2023-04-03T04:46:41;1.90;99.90
45409;DHT22;31162;51.076;3.784;2023-04-03T04:49:06;1.80;99.90
45409;DHT22;31162;51.076;3.784;2023-04-03T04:51:32;1.80;99.90
45409;DHT22;31162;51.076;3.784;2023-04-03T04:53:58;1.80;99.90
45409;DHT22;31162;51.076;3.784;2023-04-03T04:56:23;1.90;99.90
45409;DHT22;31162;51.076;3.784;2023-04-03T04:58:49;1.90;99.90
45409;DHT22;31162;51.076;3.784;2023-04-03T05:01:14;1.80;99.90
45409;DHT22;31162;51.076;3.784;2023-04-03T05:03:40;1.70;99.90
45409;DHT22;31162;51.076;3.784;2023-04-03T05:06:06;1.60;99.90
45409;DHT22;31162;51.076;3.784;2023-04-03T05:08:32;1.40;99.90
45409;DHT22;31162;51.076;3.784;2023-04-03T05:10:58;1.30;99.90
45409;DHT22;31162;51.076;3.784;2023-04-03T05:13:24;1.40;99.90
45409;DHT22;31162;51.076;3.784;2023-04-03T05:15:50;1.30;99.90
45409;DHT22;31162;51.076;3.784;2023-04-03T05:18:15;1.30;99.90
45409;DHT22;31162;51.076;3.784;2023-04-03T05:20:41;1.30;99.90
45409;DHT22;31162;51.076;3.784;2023-04-03T05:23:09;1.10;99.90
45409;DHT22;31162;51.076;3.784;2023-04-03T05:25:37;1.00;99.90
45409;DHT22;31162;51.076;3.784;2023-04-03T05:28:03;1.00;99.90
45409;DHT22;31162;51.076;3.784;2023-04-03T05:30:29;1.00;99.90
45409;DHT22;31162;51.076;3.784;2023-04-03T05:32:54;1.00;99.90
45409;DHT22;31162;51.076;3.784;2023-04-03T05:35:21;1.10;99.90
45409;DHT22;31162;51.076;3.784;2023-04-03T05:37:46;1.10;99.90
45409;DHT22;31162;51.076;3.784;2023-04-03T05:40:12;1.30;99.90
45409;DHT22;31162;51.076;3.784;2023-04-03T05:42:38;1.30;99.90
45409;DHT22;31162;51.076;3.784;2023-04-03T05:45:04;1.50;99.90
45409;DHT22;31162;51.076;3.784;2023-04-03T05:47:30;1.70;99.90
45409;DHT22;31162;51.076;3.784;2023-04-03T05:49:56;2.00;99.90
45409;DHT22;31162;51.076;3.784;2023-04-03T05:52:29;2.20;99.90
45409;DHT22;31162;51.076;3.784;2023-04-03T05:54:56;2.50;99.90
45409;DHT22;31162;51.076;3.784;2023-04-03T05:57:21;2.70;99.90
45409;DHT22;31162;51.076;3.784;2023-04-03T05:59:48;3.10;99.90
45409;DHT22;31162;51.076;3.784;2023-04-03T06:02:19;3.70;99.90
45409;DHT22;31162;51.076;3.784;2023-04-03T06:04:46;4.30;99.90
45409;DHT22;31162;51.076;3.784;2023-04-03T06:07:15;5.50;99.90
45409;DHT22;31162;51.076;3.784;2023-04-03T06:09:42;6.90;99.90
45409;DHT22;31162;51.076;3.784;2023-04-03T06:12:08;8.60;99.90
45409;DHT22;31162;51.076;3.784;2023-04-03T06:14:34;9.90;99.90
45409;DHT22;31162;51.076;3.784;2023-04-03T06:17:00;11.40;99.90
45409;DHT22;31162;51.076;3.784;2023-04-03T06:19:27;12.70;99.90
45409;DHT22;31162;51.076;3.784;2023-04-03T06:21:52;14.00;99.90
45409;DHT22;31162;51.076;3.784;2023-04-03T06:24:18;15.40;99.90
45409;DHT22;31162;51.076;3.784;2023-04-03T06:26:47;16.60;99.90
45409;DHT22;31162;51.076;3.784;2023-04-03T06:29:12;17.70;99.90
45409;DHT22;31162;51.076;3.784;2023-04-03T06:31:38;17.30;99.90
45409;DHT22;31162;51.076;3.784;2023-04-03T06:34:05;15.20;99.90
45409;DHT22;31162;51.076;3.784;2023-04-03T06:36:33;14.30;99.90
45409;DHT22;31162;51.076;3.784;2023-04-03T06:38:58;15.20;99.90
45409;DHT22;31162;51.076;3.784;2023-04-03T06:41:24;16.80;99.90
45409;DHT22;31162;51.076;3.784;2023-04-03T06:43:51;18.10;99.90
45409;DHT22;31162;51.076;3.784;2023-04-03T06:46:20;18.80;98.30
45409;DHT22;31162;51.076;3.784;2023-04-03T06:48:46;19.20;97.40
45409;DHT22;31162;51.076;3.784;2023-04-03T06:51:19;19.60;95.10
45409;DHT22;31162;51.076;3.784;2023-04-03T06:53:47;19.30;94.80
45409;DHT22;31162;51.076;3.784;2023-04-03T06:56:12;19.30;94.40
45409;DHT22;31162;51.076;3.784;2023-04-03T06:58:39;19.50;94.30
45409;DHT22;31162;51.076;3.784;2023-04-03T07:01:05;19.60;93.30
45409;DHT22;31162;51.076;3.784;2023-04-03T07:03:31;19.70;93.40
45409;DHT22;31162;51.076;3.784;2023-04-03T07:05:57;20.10;92.30
45409;DHT22;31162;51.076;3.784;2023-04-03T07:08:22;19.90;92.70
45409;DHT22;31162;51.076;3.784;2023-04-03T07:10:49;20.00;92.50
45409;DHT22;31162;51.076;3.784;2023-04-03T07:13:15;20.20;92.10
45409;DHT22;31162;51.076;3.784;2023-04-03T07:15:41;20.40;91.30
45409;DHT22;31162;51.076;3.784;2023-04-03T07:18:08;20.60;91.80
45409;DHT22;31162;51.076;3.784;2023-04-03T07:20:33;21.20;90.90
45409;DHT22;31162;51.076;3.784;2023-04-03T07:22:59;21.60;90.50
45409;DHT22;31162;51.076;3.784;2023-04-03T07:25:27;22.00;89.40
45409;DHT22;31162;51.076;3.784;2023-04-03T07:27:53;21.80;88.40
45409;DHT22;31162;51.076;3.784;2023-04-03T07:30:20;22.10;87.80
45409;DHT22;31162;51.076;3.784;2023-04-03T07:32:46;20.80;88.30
45409;DHT22;31162;51.076;3.784;2023-04-03T07:35:12;20.70;88.60
45409;DHT22;31162;51.076;3.784;2023-04-03T07:37:37;20.50;90.10
45409;DHT22;31162;51.076;3.784;2023-04-03T07:40:03;20.90;88.80
45409;DHT22;31162;51.076;3.784;2023-04-03T07:42:29;20.40;88.10
45409;DHT22;31162;51.076;3.784;2023-04-03T07:44:55;20.40;88.60
45409;DHT22;31162;51.076;3.784;2023-04-03T07:47:22;20.90;87.60
45409;DHT22;31162;51.076;3.784;2023-04-03T07:49:47;20.90;88.40
45409;DHT22;31162;51.076;3.784;2023-04-03T07:52:14;20.70;88.50
45409;DHT22;31162;51.076;3.784;2023-04-03T07:54:41;21.60;87.70
45409;DHT22;31162;51.076;3.784;2023-04-03T07:57:07;22.40;87.50
45409;DHT22;31162;51.076;3.784;2023-04-03T07:59:33;23.00;83.10
45409;DHT22;31162;51.076;3.784;2023-04-03T08:01:59;22.80;83.80
45409;DHT22;31162;51.076;3.784;2023-04-03T08:04:25;23.00;82.50
45409;DHT22;31162;51.076;3.784;2023-04-03T08:06:51;22.70;83.20
45409;DHT22;31162;51.076;3.784;2023-04-03T08:09:17;24.10;82.20
45409;DHT22;31162;51.076;3.784;2023-04-03T08:11:44;23.50;79.80
45409;DHT22;31162;51.076;3.784;2023-04-03T08:14:10;22.00;80.90
45409;DHT22;31162;51.076;3.784;2023-04-03T08:16:45;21.50;82.30
45409;DHT22;31162;51.076;3.784;2023-04-03T08:19:10;20.20;84.30
45409;DHT22;31162;51.076;3.784;2023-04-03T08:21:40;20.40;84.70
45409;DHT22;31162;51.076;3.784;2023-04-03T08:24:07;20.90;84.60
45409;DHT22;31162;51.076;3.784;2023-04-03T08:26:33;22.00;81.60
45409;DHT22;31162;51.076;3.784;2023-04-03T08:28:58;22.50;80.70
45409;DHT22;31162;51.076;3.784;2023-04-03T08:31:24;22.90;81.30
45409;DHT22;31162;51.076;3.784;2023-04-03T08:33:50;22.20;81.00
45409;DHT22;31162;51.076;3.784;2023-04-03T08:36:27;21.60;80.70
45409;DHT22;31162;51.076;3.784;2023-04-03T08:38:54;21.10;82.30
45409;DHT22;31162;51.076;3.784;2023-04-03T08:41:41;21.60;81.20
45409;DHT22;31162;51.076;3.784;2023-04-03T08:49:26;20.00;81.30
45409;DHT22;31162;51.076;3.784;2023-04-03T08:51:54;20.20;82.70
45409;DHT22;31162;51.076;3.784;2023-04-03T08:54:30;21.30;80.40
45409;DHT22;31162;51.076;3.784;2023-04-03T08:56:58;20.60;79.10
45409;DHT22;31162;51.076;3.784;2023-04-03T08:59:31;20.00;81.70
45409;DHT22;31162;51.076;3.784;2023-04-03T09:02:00;20.40;80.00
45409;DHT22;31162;51.076;3.784;2023-04-03T09:04:29;20.10;80.50
45409;DHT22;31162;51.076;3.784;2023-04-03T09:07:03;19.70;79.50
45409;DHT22;31162;51.076;3.784;2023-04-03T09:09:33;19.80;81.40
45409;DHT22;31162;51.076;3.784;2023-04-03T09:12:19;20.80;81.30
45409;DHT22;31162;51.076;3.784;2023-04-03T09:23:44;20.10;81.30
45409;DHT22;31162;51.076;3.784;2023-04-03T09:26:25;19.80;78.90
45409;DHT22;31162;51.076;3.784;2023-04-03T09:28:58;18.50;82.30
45409;DHT22;31162;51.076;3.784;2023-04-03T09:31:29;18.80;78.20
45409;DHT22;31162;51.076;3.784;2023-04-03T09:34:08;18.70;79.00
45409;DHT22;31162;51.076;3.784;2023-04-03T09:36:47;19.10;79.40
45409;DHT22;31162;51.076;3.784;2023-04-03T09:39:18;19.40;78.00
45409;DHT22;31162;51.076;3.784;2023-04-03T09:42:05;19.70;78.60
45409;DHT22;31162;51.076;3.784;2023-04-03T09:44:33;19.00;80.00
45409;DHT22;31162;51.076;3.784;2023-04-03T09:47:00;19.40;79.50
45409;DHT22;31162;51.076;3.784;2023-04-03T09:49:42;19.80;77.90
45409;DHT22;31162;51.076;3.784;2023-04-03T09:52:25;20.20;76.50
45409;DHT22;31162;51.076;3.784;2023-04-03T09:54:51;19.70;75.40
45409;DHT22;31162;51.076;3.784;2023-04-03T09:57:17;19.20;76.60
45409;DHT22;31162;51.076;3.784;2023-04-03T09:59:57;18.30;79.50
45409;DHT22;31162;51.076;3.784;2023-04-03T10:02:40;18.30;79.50
45409;DHT22;31162;51.076;3.784;2023-04-03T10:08:09;18.90;77.80
45409;DHT22;31162;51.076;3.784;2023-04-03T10:10:36;19.20;78.20
45409;DHT22;31162;51.076;3.784;2023-04-03T10:13:15;19.00;77.60
45409;DHT22;31162;51.076;3.784;2023-04-03T10:15:50;18.00;79.70
45409;DHT22;31162;51.076;3.784;2023-04-03T10:18:38;18.70;79.20
45409;DHT22;31162;51.076;3.784;2023-04-03T10:21:20;19.60;77.40
45409;DHT22;31162;51.076;3.784;2023-04-03T10:33:01;19.90;76.80
45409;DHT22;31162;51.076;3.784;2023-04-03T10:46:04;18.70;75.50
45409;DHT22;31162;51.076;3.784;2023-04-03T10:51:24;18.20;76.00
45409;DHT22;31162;51.076;3.784;2023-04-03T10:54:05;19.30;74.00
45409;DHT22;31162;51.076;3.784;2023-04-03T10:56:39;19.10;73.30
45409;DHT22;31162;51.076;3.784;2023-04-03T11:02:16;18.20;74.70
45409;DHT22;31162;51.076;3.784;2023-04-03T11:04:48;18.70;75.70
45409;DHT22;31162;51.076;3.784;2023-04-03T11:07:26;19.10;74.80
45409;DHT22;31162;51.076;3.784;2023-04-03T11:10:05;18.70;72.90
45409;DHT22;31162;51.076;3.784;2023-04-03T11:12:41;19.20;73.80
45409;DHT22;31162;51.076;3.784;2023-04-03T11:15:14;19.80;71.70
45409;DHT22;31162;51.076;3.784;2023-04-03T11:17:46;19.70;71.70
45409;DHT22;31162;51.076;3.784;2023-04-03T11:20:23;19.60;70.30
45409;DHT22;31162;51.076;3.784;2023-04-03T11:23:19;19.00;71.10
45409;DHT22;31162;51.076;3.784;2023-04-03T11:25:49;19.10;71.50
45409;DHT22;31162;51.076;3.784;2023-04-03T11:28:15;17.70;72.60
45409;DHT22;31162;51.076;3.784;2023-04-03T11:36:55;19.30;72.50
45409;DHT22;31162;51.076;3.784;2023-04-03T11:39:28;20.30;71.70
45409;DHT22;31162;51.076;3.784;2023-04-03T11:41:54;20.00;73.50
45409;DHT22;31162;51.076;3.784;2023-04-03T11:44:36;18.40;69.00
45409;DHT22;31162;51.076;3.784;2023-04-03T11:47:04;17.40;71.90
45409;DHT22;31162;51.076;3.784;2023-04-03T11:50:00;17.20;71.80
45409;DHT22;31162;51.076;3.784;2023-04-03T12:00:56;16.60;72.20
45409;DHT22;31162;51.076;3.784;2023-04-03T12:48:53;12.70;81.30
45409;DHT22;31162;51.076;3.784;2023-04-03T12:54:03;12.30;81.60
45409;DHT22;31162;51.076;3.784;2023-04-03T12:56:38;12.40;82.50
45409;DHT22;31162;51.076;3.784;2023-04-03T12:59:23;12.50;80.90
45409;DHT22;31162;51.076;3.784;2023-04-03T13:02:00;12.40;80.40
45409;DHT22;31162;51.076;3.784;2023-04-03T13:04:28;12.30;77.70
45409;DHT22;31162;51.076;3.784;2023-04-03T13:06:54;12.30;78.10
45409;DHT22;31162;51.076;3.784;2023-04-03T13:11:52;12.30;79.90
45409;DHT22;31162;51.076;3.784;2023-04-03T13:14:21;12.30;80.30
45409;DHT22;31162;51.076;3.784;2023-04-03T13:19:29;12.60;80.70
45409;DHT22;31162;51.076;3.784;2023-04-03T13:22:02;12.70;81.20
45409;DHT22;31162;51.076;3.784;2023-04-03T13:24:32;12.50;80.50
45409;DHT22;31162;51.076;3.784;2023-04-03T13:26:59;12.60;79.00
45409;DHT22;31162;51.076;3.784;2023-04-03T13:29:32;12.70;78.90
45409;DHT22;31162;51.076;3.784;2023-04-03T13:31:59;12.50;76.30
45409;DHT22;31162;51.076;3.784;2023-04-03T13:34:28;12.60;75.50
45409;DHT22;31162;51.076;3.784;2023-04-03T13:36:57;12.50;73.70
45409;DHT22;31162;51.076;3.784;2023-04-03T13:39:27;12.50;76.40
45409;DHT22;31162;51.076;3.784;2023-04-03T13:41:58;12.50;74.40
45409;DHT22;31162;51.076;3.784;2023-04-03T13:44:33;12.20;75.90
45409;DHT22;31162;51.076;3.784;2023-04-03T13:49:38;11.80;75.10
45409;DHT22;31162;51.076;3.784;2023-04-03T13:52:26;12.10;75.30
45409;DHT22;31162;51.076;3.784;2023-04-03T13:54:55;12.30;75.30
45409;DHT22;31162;51.076;3.784;2023-04-03T13:57:22;12.30;76.70
45409;DHT22;31162;51.076;3.784;2023-04-03T13:59:48;12.30;75.30
45409;DHT22;31162;51.076;3.784;2023-04-03T14:02:31;12.00;75.50
45409;DHT22;31162;51.076;3.784;2023-04-03T14:05:00;12.10;75.60
45409;DHT22;31162;51.076;3.784;2023-04-03T14:07:28;12.20;74.60
45409;DHT22;31162;51.076;3.784;2023-04-03T14:09:55;12.20;73.50
45409;DHT22;31162;51.076;3.784;2023-04-03T14:12:25;12.20;75.80
45409;DHT22;31162;51.076;3.784;2023-04-03T14:14:51;11.90;76.30
45409;DHT22;31162;51.076;3.784;2023-04-03T14:17:20;12.00;75.90
45409;DHT22;31162;51.076;3.784;2023-04-03T14:19:48;12.20;77.50
45409;DHT22;31162;51.076;3.784;2023-04-03T14:22:32;12.30;76.40
45409;DHT22;31162;51.076;3.784;2023-04-03T14:25:00;12.40;73.70
45409;DHT22;31162;51.076;3.784;2023-04-03T14:27:29;12.40;74.70
45409;DHT22;31162;51.076;3.784;2023-04-03T14:29:57;12.40;71.90
45409;DHT22;31162;51.076;3.784;2023-04-03T14:32:25;12.40;72.60
45409;DHT22;31162;51.076;3.784;2023-04-03T14:34:51;12.40;72.20
45409;DHT22;31162;51.076;3.784;2023-04-03T14:37:26;12.30;72.30
45409;DHT22;31162;51.076;3.784;2023-04-03T14:39:54;12.30;72.40
45409;DHT22;31162;51.076;3.784;2023-04-03T14:42:32;12.30;74.70
45409;DHT22;31162;51.076;3.784;2023-04-03T14:44:59;11.80;72.60
45409;DHT22;31162;51.076;3.784;2023-04-03T14:47:28;11.90;75.90
45409;DHT22;31162;51.076;3.784;2023-04-03T14:49:55;11.90;72.10
45409;DHT22;31162;51.076;3.784;2023-04-03T14:52:30;11.90;73.40
45409;DHT22;31162;51.076;3.784;2023-04-03T14:54:57;11.90;74.70
45409;DHT22;31162;51.076;3.784;2023-04-03T14:57:27;12.00;73.50
45409;DHT22;31162;51.076;3.784;2023-04-03T14:59:53;12.10;75.50
45409;DHT22;31162;51.076;3.784;2023-04-03T15:04:56;11.90;74.30
45409;DHT22;31162;51.076;3.784;2023-04-03T15:07:24;11.90;73.10
45409;DHT22;31162;51.076;3.784;2023-04-03T15:09:50;12.00;73.60
45409;DHT22;31162;51.076;3.784;2023-04-03T15:12:16;12.10;73.60
45409;DHT22;31162;51.076;3.784;2023-04-03T15:14:42;12.20;72.50
45409;DHT22;31162;51.076;3.784;2023-04-03T15:17:17;12.10;73.80
45409;DHT22;31162;51.076;3.784;2023-04-03T15:19:44;12.20;71.90
45409;DHT22;31162;51.076;3.784;2023-04-03T15:22:19;12.10;73.90
45409;DHT22;31162;51.076;3.784;2023-04-03T15:24:45;12.00;74.20
45409;DHT22;31162;51.076;3.784;2023-04-03T15:27:12;11.90;75.70
45409;DHT22;31162;51.076;3.784;2023-04-03T15:29:39;11.90;75.70
45409;DHT22;31162;51.076;3.784;2023-04-03T15:32:05;12.00;77.10
45409;DHT22;31162;51.076;3.784;2023-04-03T15:34:32;12.10;76.20
45409;DHT22;31162;51.076;3.784;2023-04-03T15:36:57;11.90;75.60
45409;DHT22;31162;51.076;3.784;2023-04-03T15:39:25;11.80;76.70
45409;DHT22;31162;51.076;3.784;2023-04-03T15:41:50;11.80;76.80
45409;DHT22;31162;51.076;3.784;2023-04-03T15:44:17;11.80;75.00
45409;DHT22;31162;51.076;3.784;2023-04-03T15:46:45;11.90;74.80
45409;DHT22;31162;51.076;3.784;2023-04-03T15:49:11;12.00;74.80
45409;DHT22;31162;51.076;3.784;2023-04-03T15:51:37;11.90;73.90
45409;DHT22;31162;51.076;3.784;2023-04-03T15:54:03;12.00;74.50
45409;DHT22;31162;51.076;3.784;2023-04-03T15:56:28;12.00;73.90
45409;DHT22;31162;51.076;3.784;2023-04-03T15:58:54;12.00;76.30
45409;DHT22;31162;51.076;3.784;2023-04-03T16:01:20;12.00;76.20
45409;DHT22;31162;51.076;3.784;2023-04-03T16:03:46;12.10;74.20
45409;DHT22;31162;51.076;3.784;2023-04-03T16:06:15;12.00;75.50
45409;DHT22;31162;51.076;3.784;2023-04-03T16:08:42;12.00;74.50
45409;DHT22;31162;51.076;3.784;2023-04-03T16:11:08;12.00;75.40
45409;DHT22;31162;51.076;3.784;2023-04-03T16:13:34;12.00;73.70
45409;DHT22;31162;51.076;3.784;2023-04-03T16:16:01;12.00;72.80
45409;DHT22;31162;51.076;3.784;2023-04-03T16:18:28;11.80;73.30
45409;DHT22;31162;51.076;3.784;2023-04-03T16:20:54;11.80;73.50
45409;DHT22;31162;51.076;3.784;2023-04-03T16:23:20;11.80;73.60
45409;DHT22;31162;51.076;3.784;2023-04-03T16:25:46;11.80;74.50
45409;DHT22;31162;51.076;3.784;2023-04-03T16:28:13;11.70;75.50
45409;DHT22;31162;51.076;3.784;2023-04-03T16:30:46;11.80;74.60
45409;DHT22;31162;51.076;3.784;2023-04-03T16:33:12;11.80;74.70
45409;DHT22;31162;51.076;3.784;2023-04-03T16:35:39;11.60;75.10
45409;DHT22;31162;51.076;3.784;2023-04-03T16:38:05;11.60;74.40
45409;DHT22;31162;51.076;3.784;2023-04-03T16:40:31;11.50;75.10
45409;DHT22;31162;51.076;3.784;2023-04-03T16:42:59;11.40;74.40
45409;DHT22;31162;51.076;3.784;2023-04-03T16:45:25;11.40;75.20
45409;DHT22;31162;51.076;3.784;2023-04-03T16:47:50;11.40;74.90
45409;DHT22;31162;51.076;3.784;2023-04-03T16:50:16;11.30;74.00
45409;DHT22;31162;51.076;3.784;2023-04-03T16:52:42;11.30;75.90
45409;DHT22;31162;51.076;3.784;2023-04-03T16:55:09;11.30;75.40
45409;DHT22;31162;51.076;3.784;2023-04-03T16:57:34;11.30;75.20
45409;DHT22;31162;51.076;3.784;2023-04-03T17:00:00;11.20;75.70
45409;DHT22;31162;51.076;3.784;2023-04-03T17:02:26;11.10;75.30
45409;DHT22;31162;51.076;3.784;2023-04-03T17:04:53;11.10;75.50
45409;DHT22;31162;51.076;3.784;2023-04-03T17:07:20;11.00;76.00
45409;DHT22;31162;51.076;3.784;2023-04-03T17:09:47;10.90;76.80
45409;DHT22;31162;51.076;3.784;2023-04-03T17:12:13;10.80;76.60
45409;DHT22;31162;51.076;3.784;2023-04-03T17:14:39;10.70;76.90
45409;DHT22;31162;51.076;3.784;2023-04-03T17:17:05;10.70;76.20
45409;DHT22;31162;51.076;3.784;2023-04-03T17:19:34;10.60;76.20
45409;DHT22;31162;51.076;3.784;2023-04-03T17:22:00;10.60;77.20
45409;DHT22;31162;51.076;3.784;2023-04-03T17:24:26;10.60;78.30
45409;DHT22;31162;51.076;3.784;2023-04-03T17:26:52;10.50;79.70
45409;DHT22;31162;51.076;3.784;2023-04-03T17:29:18;10.50;79.60
45409;DHT22;31162;51.076;3.784;2023-04-03T17:31:44;10.40;78.80
45409;DHT22;31162;51.076;3.784;2023-04-03T17:34:09;10.40;79.70
45409;DHT22;31162;51.076;3.784;2023-04-03T17:36:38;10.30;80.40
45409;DHT22;31162;51.076;3.784;2023-04-03T17:39:04;10.20;80.10
45409;DHT22;31162;51.076;3.784;2023-04-03T17:41:30;10.10;80.40